sensor_id;sensor_type;location;lat;lon;timestamp;temperature;humidity
11617;DHT22;5864;52.998;9.068;2022-10-16T00:00:48;12.90;99.90
11617;DHT22;5864;52.998;9.068;2022-10-16T00:03:15;12.90;99.90
11617;DHT22;5864;52.998;9.068;2022-10-16T00:05:45;12.90;99.90
11617;DHT22;5864;52.998;9.068;2022-10-16T00:08:13;12.90;99.90
11617;DHT22;5864;52.998;9.068;2022-10-16T00:10:40;12.90;99.90
11617;DHT22;5864;52.998;9.068;2022-10-16T00:13:08;13.00;99.90
11617;DHT22;5864;52.998;9.068;2022-10-16T00:15:36;12.90;99.90
11617;DHT22;5864;52.998;9.068;2022-10-16T00:18:05;12.90;99.90
11617;DHT22;5864;52.998;9.068;2022-10-16T00:20:34;12.90;99.90
11617;DHT22;5864;52.998;9.068;2022-10-16T00:23:04;13.00;99.90
11617;DHT22;5864;52.998;9.068;2022-10-16T00:25:32;13.00;99.90
11617;DHT22;5864;52.998;9.068;2022-10-16T00:28:00;13.00;99.90
11617;DHT22;5864;52.998;9.068;2022-10-16T00:30:27;13.00;99.90
11617;DHT22;5864;52.998;9.068;2022-10-16T00:32:55;12.90;99.90
11617;DHT22;5864;52.998;9.068;2022-10-16T00:35:23;12.90;99.90
11617;DHT22;5864;52.998;9.068;2022-10-16T00:37:51;13.00;99.90
11617;DHT22;5864;52.998;9.068;2022-10-16T00:40:20;12.90;99.90
11617;DHT22;5864;52.998;9.068;2022-10-16T00:42:47;12.90;99.90
11617;DHT22;5864;52.998;9.068;2022-10-16T00:45:15;12.90;99.90
11617;DHT22;5864;52.998;9.068;2022-10-16T00:47:45;12.80;99.90
11617;DHT22;5864;52.998;9.068;2022-10-16T00:50:18;12.90;99.90
11617;DHT22;5864;52.998;9.068;2022-10-16T00:52:51;12.90;99.90
11617;DHT22;5864;52.998;9.068;2022-10-16T00:55:21;12.90;99.90
11617;DHT22;5864;52.998;9.068;2022-10-16T00:57:50;12.90;99.90
11617;DHT22;5864;52.998;9.068;2022-10-16T01:00:20;12.90;99.90
11617;DHT22;5864;52.998;9.068;2022-10-16T01:02:52;12.90;99.90
11617;DHT22;5864;52.998;9.068;2022-10-16T01:05:21;12.90;99.90
11617;DHT22;5864;52.998;9.068;2022-10-16T01:07:56;12.90;99.90
11617;DHT22;5864;52.998;9.068;2022-10-16T01:10:31;12.90;99.90
11617;DHT22;5864;52.998;9.068;2022-10-16T01:13:06;13.00;99.90
11617;DHT22;5864;52.998;9.068;2022-10-16T01:15:37;13.00;99.90
11617;DHT22;5864;52.998;9.068;2022-10-16T01:18:13;13.00;99.90
11617;DHT22;5864;52.998;9.068;2022-10-16T01:20:45;12.90;99.90
11617;DHT22;5864;52.998;9.068;2022-10-16T01:23:23;13.00;99.90
11617;DHT22;5864;52.998;9.068;2022-10-16T01:26:20;13.00;99.90
11617;DHT22;5864;52.998;9.068;2022-10-16T01:28:55;13.00;99.90
11617;DHT22;5864;52.998;9.068;2022-10-16T01:31:27;13.00;99.90
11617;DHT22;5864;52.998;9.068;2022-10-16T01:34:01;13.00;99.90
11617;DHT22;5864;52.998;9.068;2022-10-16T01:36:35;12.90;99.90
11617;DHT22;5864;52.998;9.068;2022-10-16T01:39:06;12.90;99.90
11617;DHT22;5864;52.998;9.068;2022-10-16T01:41:39;12.90;99.90
11617;DHT22;5864;52.998;9.068;2022-10-16T01:44:11;12.80;99.90
11617;DHT22;5864;52.998;9.068;2022-10-16T01:46:43;12.80;99.90
11617;DHT22;5864;52.998;9.068;2022-10-16T01:49:13;12.80;99.90
11617;DHT22;5864;52.998;9.068;2022-10-16T01:51:44;12.70;99.90
11617;DHT22;5864;52.998;9.068;2022-10-16T01:54:14;12.70;99.90
11617;DHT22;5864;52.998;9.068;2022-10-16T01:56:42;12.70;99.90
11617;DHT22;5864;52.998;9.068;2022-10-16T01:59:14;12.80;99.90
11617;DHT22;5864;52.998;9.068;2022-10-16T02:01:45;12.70;99.90
11617;DHT22;5864;52.998;9.068;2022-10-16T02:04:23;12.70;99.90
11617;DHT22;5864;52.998;9.068;2022-10-16T02:06:52;12.70;99.90
11617;DHT22;5864;52.998;9.068;2022-10-16T02:09:20;12.70;99.90
11617;DHT22;5864;52.998;9.068;2022-10-16T02:11:50;12.70;99.90
11617;DHT22;5864;52.998;9.068;2022-10-16T02:14:21;12.70;99.90
11617;DHT22;5864;52.998;9.068;2022-10-16T02:16:50;12.70;99.90
11617;DHT22;5864;52.998;9.068;2022-10-16T02:19:19;12.70;99.90
11617;DHT22;5864;52.998;9.068;2022-10-16T02:21:51;12.70;99.90
11617;DHT22;5864;52.998;9.068;2022-10-16T02:24:26;12.60;99.90
11617;DHT22;5864;52.998;9.068;2022-10-16T02:27:02;12.50;99.90
11617;DHT22;5864;52.998;9.068;2022-10-16T02:29:34;12.50;99.90
11617;DHT22;5864;52.998;9.068;2022-10-16T02:32:06;12.40;99.90
11617;DHT22;5864;52.998;9.068;2022-10-16T02:34:36;12.40;99.90
11617;DHT22;5864;52.998;9.068;2022-10-16T02:37:05;12.30;99.90
11617;DHT22;5864;52.998;9.068;2022-10-16T02:39:33;12.30;99.90
11617;DHT22;5864;52.998;9.068;2022-10-16T02:42:02;12.30;99.90
11617;DHT22;5864;52.998;9.068;2022-10-16T02:44:29;12.30;99.90
11617;DHT22;5864;52.998;9.068;2022-10-16T02:46:59;12.30;99.90
11617;DHT22;5864;52.998;9.068;2022-10-16T02:49:26;12.20;99.90
11617;DHT22;5864;52.998;9.068;2022-10-16T02:51:53;12.20;99.90
11617;DHT22;5864;52.998;9.068;2022-10-16T02:54:21;12.20;99.90
11617;DHT22;5864;52.998;9.068;2022-10-16T02:56:48;12.20;99.90
11617;DHT22;5864;52.998;9.068;2022-10-16T02:59:16;12.10;99.90
11617;DHT22;5864;52.998;9.068;2022-10-16T03:01:44;12.10;99.90
11617;DHT22;5864;52.998;9.068;2022-10-16T03:04:13;12.10;99.90
11617;DHT22;5864;52.998;9.068;2022-10-16T03:06:41;10.10;99.90
11617;DHT22;5864;52.998;9.068;2022-10-16T03:09:08;12.10;99.90
11617;DHT22;5864;52.998;9.068;2022-10-16T03:11:36;12.10;99.90
11617;DHT22;5864;52.998;9.068;2022-10-16T03:14:04;12.10;99.90
11617;DHT22;5864;52.998;9.068;2022-10-16T03:16:31;12.10;99.90
11617;DHT22;5864;52.998;9.068;2022-10-16T03:18:59;12.10;99.90
11617;DHT22;5864;52.998;9.068;2022-10-16T03:21:27;12.10;99.90
11617;DHT22;5864;52.998;9.068;2022-10-16T03:23:55;12.10;99.90
11617;DHT22;5864;52.998;9.068;2022-10-16T03:26:23;12.10;99.90
11617;DHT22;5864;52.998;9.068;2022-10-16T03:28:50;12.10;99.90
11617;DHT22;5864;52.998;9.068;2022-10-16T03:31:18;12.10;99.90
11617;DHT22;5864;52.998;9.068;2022-10-16T03:33:45;12.10;99.90
11617;DHT22;5864;52.998;9.068;2022-10-16T03:36:13;12.10;99.90
11617;DHT22;5864;52.998;9.068;2022-10-16T03:38:42;12.10;99.90
11617;DHT22;5864;52.998;9.068;2022-10-16T03:41:09;12.10;99.90
11617;DHT22;5864;52.998;9.068;2022-10-16T03:43:37;12.10;99.90
11617;DHT22;5864;52.998;9.068;2022-10-16T03:46:05;12.10;99.90
11617;DHT22;5864;52.998;9.068;2022-10-16T03:48:32;12.10;99.90
11617;DHT22;5864;52.998;9.068;2022-10-16T03:51:00;12.10;99.90
11617;DHT22;5864;52.998;9.068;2022-10-16T03:53:27;12.10;99.90
11617;DHT22;5864;52.998;9.068;2022-10-16T03:55:56;12.20;99.90
11617;DHT22;5864;52.998;9.068;2022-10-16T03:58:24;12.20;99.90
11617;DHT22;5864;52.998;9.068;2022-10-16T04:00:52;12.20;99.90
11617;DHT22;5864;52.998;9.068;2022-10-16T04:03:20;12.30;99.90
11617;DHT22;5864;52.998;9.068;2022-10-16T04:05:47;12.30;99.90
11617;DHT22;5864;52.998;9.068;2022-10-16T04:08:15;12.30;99.90
11617;DHT22;5864;52.998;9.068;2022-10-16T04:10:43;14.50;99.90
11617;DHT22;5864;52.998;9.068;2022-10-16T04:13:12;11.30;99.90
11617;DHT22;5864;52.998;9.068;2022-10-16T04:15:40;12.40;99.90
11617;DHT22;5864;52.998;9.068;2022-10-16T04:18:07;12.40;99.90
11617;DHT22;5864;52.998;9.068;2022-10-16T04:20:35;12.40;99.90
11617;DHT22;5864;52.998;9.068;2022-10-16T04:23:03;12.40;99.90
11617;DHT22;5864;52.998;9.068;2022-10-16T04:25:31;12.50;99.90
11617;DHT22;5864;52.998;9.068;2022-10-16T04:27:59;12.50;99.90
11617;DHT22;5864;52.998;9.068;2022-10-16T04:30:28;12.60;99.90
11617;DHT22;5864;52.998;9.068;2022-10-16T04:32:56;12.60;99.90
11617;DHT22;5864;52.998;9.068;2022-10-16T04:35:23;12.70;99.90
11617;DHT22;5864;52.998;9.068;2022-10-16T04:37:50;12.70;99.90
11617;DHT22;5864;52.998;9.068;2022-10-16T04:40:18;13.30;99.90
11617;DHT22;5864;52.998;9.068;2022-10-16T04:42:46;12.60;99.90
11617;DHT22;5864;52.998;9.068;2022-10-16T04:45:13;12.60;99.90
11617;DHT22;5864;52.998;9.068;2022-10-16T04:47:42;12.60;99.90
11617;DHT22;5864;52.998;9.068;2022-10-16T04:50:09;12.50;99.90
11617;DHT22;5864;52.998;9.068;2022-10-16T04:52:37;12.50;99.90
11617;DHT22;5864;52.998;9.068;2022-10-16T04:55:05;12.50;99.90
11617;DHT22;5864;52.998;9.068;2022-10-16T04:57:33;12.50;99.90
11617;DHT22;5864;52.998;9.068;2022-10-16T05:00:01;12.40;99.90
11617;DHT22;5864;52.998;9.068;2022-10-16T05:02:29;12.40;99.90
11617;DHT22;5864;52.998;9.068;2022-10-16T05:04:58;12.40;99.90
11617;DHT22;5864;52.998;9.068;2022-10-16T05:07:25;12.40;99.90
11617;DHT22;5864;52.998;9.068;2022-10-16T05:09:53;12.40;99.90
11617;DHT22;5864;52.998;9.068;2022-10-16T05:12:20;12.40;99.90
11617;DHT22;5864;52.998;9.068;2022-10-16T05:14:48;12.40;99.90
11617;DHT22;5864;52.998;9.068;2022-10-16T05:17:15;12.40;99.90
11617;DHT22;5864;52.998;9.068;2022-10-16T05:19:43;12.30;99.90
11617;DHT22;5864;52.998;9.068;2022-10-16T05:22:12;12.30;99.90
11617;DHT22;5864;52.998;9.068;2022-10-16T05:24:39;12.30;99.90
11617;DHT22;5864;52.998;9.068;2022-10-16T05:27:07;12.30;99.90
11617;DHT22;5864;52.998;9.068;2022-10-16T05:29:34;12.30;99.90
11617;DHT22;5864;52.998;9.068;2022-10-16T05:32:02;12.40;99.90
11617;DHT22;5864;52.998;9.068;2022-10-16T05:34:30;12.40;99.90
11617;DHT22;5864;52.998;9.068;2022-10-16T05:36:57;12.30;99.90
11617;DHT22;5864;52.998;9.068;2022-10-16T05:39:26;12.30;99.90
11617;DHT22;5864;52.998;9.068;2022-10-16T05:41:54;12.30;99.90
11617;DHT22;5864;52.998;9.068;2022-10-16T05:44:21;12.30;99.90
11617;DHT22;5864;52.998;9.068;2022-10-16T05:46:49;12.30;99.90
11617;DHT22;5864;52.998;9.068;2022-10-16T05:49:16;12.30;99.90
11617;DHT22;5864;52.998;9.068;2022-10-16T05:51:44;12.30;99.90
11617;DHT22;5864;52.998;9.068;2022-10-16T05:54:11;12.40;99.90
11617;DHT22;5864;52.998;9.068;2022-10-16T05:56:40;12.30;99.90
11617;DHT22;5864;52.998;9.068;2022-10-16T05:59:07;12.40;99.90
11617;DHT22;5864;52.998;9.068;2022-10-16T06:01:35;12.30;99.90
11617;DHT22;5864;52.998;9.068;2022-10-16T06:04:03;12.40;99.90
11617;DHT22;5864;52.998;9.068;2022-10-16T06:06:30;12.40;99.90
11617;DHT22;5864;52.998;9.068;2022-10-16T06:08:58;12.40;99.90
11617;DHT22;5864;52.998;9.068;2022-10-16T06:11:29;12.40;99.90
11617;DHT22;5864;52.998;9.068;2022-10-16T06:14:00;12.50;99.90
11617;DHT22;5864;52.998;9.068;2022-10-16T06:16:29;12.50;99.90
11617;DHT22;5864;52.998;9.068;2022-10-16T06:18:56;12.50;99.90
11617;DHT22;5864;52.998;9.068;2022-10-16T06:21:26;11.60;99.90
11617;DHT22;5864;52.998;9.068;2022-10-16T06:23:55;12.50;99.90
11617;DHT22;5864;52.998;9.068;2022-10-16T06:26:24;12.60;99.90
11617;DHT22;5864;52.998;9.068;2022-10-16T06:28:54;12.60;99.90
11617;DHT22;5864;52.998;9.068;2022-10-16T06:31:24;12.60;99.90
11617;DHT22;5864;52.998;9.068;2022-10-16T06:33:55;12.60;99.90
11617;DHT22;5864;52.998;9.068;2022-10-16T06:36:23;12.60;99.90
11617;DHT22;5864;52.998;9.068;2022-10-16T06:38:51;12.70;99.90
11617;DHT22;5864;52.998;9.068;2022-10-16T06:41:21;12.70;99.90
11617;DHT22;5864;52.998;9.068;2022-10-16T06:43:48;12.80;99.90
11617;DHT22;5864;52.998;9.068;2022-10-16T06:46:18;12.80;99.90
11617;DHT22;5864;52.998;9.068;2022-10-16T06:48:47;12.90;99.90
11617;DHT22;5864;52.998;9.068;2022-10-16T06:51:16;12.90;99.90
11617;DHT22;5864;52.998;9.068;2022-10-16T06:53:45;13.00;99.90
11617;DHT22;5864;52.998;9.068;2022-10-16T06:56:16;13.10;99.90
11617;DHT22;5864;52.998;9.068;2022-10-16T06:58:44;13.20;99.90
11617;DHT22;5864;52.998;9.068;2022-10-16T07:01:13;13.20;99.90
11617;DHT22;5864;52.998;9.068;2022-10-16T07:03:42;13.30;99.90
11617;DHT22;5864;52.998;9.068;2022-10-16T07:06:14;13.40;99.90
11617;DHT22;5864;52.998;9.068;2022-10-16T07:08:43;13.50;99.90
11617;DHT22;5864;52.998;9.068;2022-10-16T07:11:13;13.60;99.90
11617;DHT22;5864;52.998;9.068;2022-10-16T07:13:42;13.60;99.90
11617;DHT22;5864;52.998;9.068;2022-10-16T07:16:12;13.80;99.90
11617;DHT22;5864;52.998;9.068;2022-10-16T07:18:40;14.10;99.90
11617;DHT22;5864;52.998;9.068;2022-10-16T07:21:12;14.40;99.90
11617;DHT22;5864;52.998;9.068;2022-10-16T07:23:41;14.90;99.90
11617;DHT22;5864;52.998;9.068;2022-10-16T07:26:10;15.70;99.90
11617;DHT22;5864;52.998;9.068;2022-10-16T07:28:38;16.50;99.90
11617;DHT22;5864;52.998;9.068;2022-10-16T07:31:07;17.30;99.90
11617;DHT22;5864;52.998;9.068;2022-10-16T07:33:37;17.50;97.60
11617;DHT22;5864;52.998;9.068;2022-10-16T07:36:06;17.30;99.70
11617;DHT22;5864;52.998;9.068;2022-10-16T07:38:35;17.40;99.90
11617;DHT22;5864;52.998;9.068;2022-10-16T07:41:05;17.90;99.90
11617;DHT22;5864;52.998;9.068;2022-10-16T07:43:33;18.60;88.50
11617;DHT22;5864;52.998;9.068;2022-10-16T07:46:01;19.50;92.60
11617;DHT22;5864;52.998;9.068;2022-10-16T07:48:30;20.20;99.90
11617;DHT22;5864;52.998;9.068;2022-10-16T07:50:58;20.00;99.90
11617;DHT22;5864;52.998;9.068;2022-10-16T07:53:26;20.70;99.90
11617;DHT22;5864;52.998;9.068;2022-10-16T07:55:58;21.30;99.90
11617;DHT22;5864;52.998;9.068;2022-10-16T07:58:26;21.70;99.90
11617;DHT22;5864;52.998;9.068;2022-10-16T08:00:54;21.80;99.90
11617;DHT22;5864;52.998;9.068;2022-10-16T08:03:21;20.90;99.90
11617;DHT22;5864;52.998;9.068;2022-10-16T08:05:49;19.80;99.90
11617;DHT22;5864;52.998;9.068;2022-10-16T08:08:18;18.90;99.90
11617;DHT22;5864;52.998;9.068;2022-10-16T08:10:46;18.60;99.90
11617;DHT22;5864;52.998;9.068;2022-10-16T08:13:15;18.30;99.90
11617;DHT22;5864;52.998;9.068;2022-10-16T08:15:43;18.50;99.90
11617;DHT22;5864;52.998;9.068;2022-10-16T08:18:13;18.20;99.90
11617;DHT22;5864;52.998;9.068;2022-10-16T08:20:42;17.90;99.90
11617;DHT22;5864;52.998;9.068;2022-10-16T08:23:11;17.80;99.90
11617;DHT22;5864;52.998;9.068;2022-10-16T08:25:39;17.80;99.90
11617;DHT22;5864;52.998;9.068;2022-10-16T08:28:08;18.30;99.90
11617;DHT22;5864;52.998;9.068;2022-10-16T08:30:37;19.10;99.90
11617;DHT22;5864;52.998;9.068;2022-10-16T08:33:05;20.20;99.90
11617;DHT22;5864;52.998;9.068;2022-10-16T08:35:33;21.20;99.90
11617;DHT22;5864;52.998;9.068;2022-10-16T08:38:02;21.80;99.90
11617;DHT22;5864;52.998;9.068;2022-10-16T08:40:31;22.50;99.90
11617;DHT22;5864;52.998;9.068;2022-10-16T08:43:11;21.90;99.90
11617;DHT22;5864;52.998;9.068;2022-10-16T08:45:51;21.60;99.90
11617;DHT22;5864;52.998;9.068;2022-10-16T08:48:29;22.60;99.90
11617;DHT22;5864;52.998;9.068;2022-10-16T08:50:58;23.30;99.90
11617;DHT22;5864;52.998;9.068;2022-10-16T08:53:31;24.20;98.80
11617;DHT22;5864;52.998;9.068;2022-10-16T08:56:00;24.60;97.60
11617;DHT22;5864;52.998;9.068;2022-10-16T08:58:29;25.50;96.50
11617;DHT22;5864;52.998;9.068;2022-10-16T09:01:01;26.20;94.50
11617;DHT22;5864;52.998;9.068;2022-10-16T09:03:41;25.00;94.20
11617;DHT22;5864;52.998;9.068;2022-10-16T09:06:30;26.30;93.00
11617;DHT22;5864;52.998;9.068;2022-10-16T09:09:08;26.70;1.00
11617;DHT22;5864;52.998;9.068;2022-10-16T09:11:45;27.40;1.00
11617;DHT22;5864;52.998;9.068;2022-10-16T09:14:26;27.20;99.90
11617;DHT22;5864;52.998;9.068;2022-10-16T09:17:16;26.60;1.00
11617;DHT22;5864;52.998;9.068;2022-10-16T09:19:53;26.40;1.00
11617;DHT22;5864;52.998;9.068;2022-10-16T09:22:27;27.00;1.00
11617;DHT22;5864;52.998;9.068;2022-10-16T09:25:00;27.80;99.90
11617;DHT22;5864;52.998;9.068;2022-10-16T09:27:27;27.40;99.90
11617;DHT22;5864;52.998;9.068;2022-10-16T09:29:55;27.60;99.90
11617;DHT22;5864;52.998;9.068;2022-10-16T09:32:24;27.90;99.90
11617;DHT22;5864;52.998;9.068;2022-10-16T09:34:53;27.30;99.90
11617;DHT22;5864;52.998;9.068;2022-10-16T09:37:24;27.70;99.90
11617;DHT22;5864;52.998;9.068;2022-10-16T09:39:53;27.90;99.90
11617;DHT22;5864;52.998;9.068;2022-10-16T09:42:23;27.60;99.90
11617;DHT22;5864;52.998;9.068;2022-10-16T09:44:53;27.30;99.90
11617;DHT22;5864;52.998;9.068;2022-10-16T09:47:24;27.00;99.90
11617;DHT22;5864;52.998;9.068;2022-10-16T09:49:54;27.50;99.90
11617;DHT22;5864;52.998;9.068;2022-10-16T09:52:26;27.50;99.90
11617;DHT22;5864;52.998;9.068;2022-10-16T09:54:55;27.10;99.90
11617;DHT22;5864;52.998;9.068;2022-10-16T09:57:24;26.60;1.00
11617;DHT22;5864;52.998;9.068;2022-10-16T09:59:53;26.50;99.90
11617;DHT22;5864;52.998;9.068;2022-10-16T10:02:31;25.20;1.00
11617;DHT22;5864;52.998;9.068;2022-10-16T10:05:01;24.00;1.00
11617;DHT22;5864;52.998;9.068;2022-10-16T10:07:31;23.40;1.00
11617;DHT22;5864;52.998;9.068;2022-10-16T10:10:01;22.70;1.00
11617;DHT22;5864;52.998;9.068;2022-10-16T10:12:30;22.00;97.70
11617;DHT22;5864;52.998;9.068;2022-10-16T10:15:05;21.60;99.00
11617;DHT22;5864;52.998;9.068;2022-10-16T10:17:46;21.50;99.90
11617;DHT22;5864;52.998;9.068;2022-10-16T10:20:23;22.00;99.10
11617;DHT22;5864;52.998;9.068;2022-10-16T10:22:51;22.60;97.30
11617;DHT22;5864;52.998;9.068;2022-10-16T10:25:28;23.30;97.50
11617;DHT22;5864;52.998;9.068;2022-10-16T10:28:26;24.10;96.10
11617;DHT22;5864;52.998;9.068;2022-10-16T10:30:59;23.70;96.20
11617;DHT22;5864;52.998;9.068;2022-10-16T10:33:34;23.70;96.40
11617;DHT22;5864;52.998;9.068;2022-10-16T10:36:16;23.70;95.90
11617;DHT22;5864;52.998;9.068;2022-10-16T10:38:50;23.70;96.20
11617;DHT22;5864;52.998;9.068;2022-10-16T10:41:28;23.50;96.80
11617;DHT22;5864;52.998;9.068;2022-10-16T10:44:07;23.40;97.00
11617;DHT22;5864;52.998;9.068;2022-10-16T10:46:44;22.40;97.50
11617;DHT22;5864;52.998;9.068;2022-10-16T10:49:28;22.10;99.30
11617;DHT22;5864;52.998;9.068;2022-10-16T10:52:08;21.80;99.50
11617;DHT22;5864;52.998;9.068;2022-10-16T10:54:48;21.60;99.90
11617;DHT22;5864;52.998;9.068;2022-10-16T11:00:06;21.20;99.70
11617;DHT22;5864;52.998;9.068;2022-10-16T11:02:41;21.50;99.90
11617;DHT22;5864;52.998;9.068;2022-10-16T11:05:33;21.40;99.90
11617;DHT22;5864;52.998;9.068;2022-10-16T11:08:10;20.90;99.90
11617;DHT22;5864;52.998;9.068;2022-10-16T11:10:46;20.70;99.90
11617;DHT22;5864;52.998;9.068;2022-10-16T11:13:26;21.00;99.90
11617;DHT22;5864;52.998;9.068;2022-10-16T11:15:58;21.20;99.90
11617;DHT22;5864;52.998;9.068;2022-10-16T11:18:31;21.50;99.50
11617;DHT22;5864;52.998;9.068;2022-10-16T11:21:04;21.80;95.00
11617;DHT22;5864;52.998;9.068;2022-10-16T11:23:38;22.10;99.90
11617;DHT22;5864;52.998;9.068;2022-10-16T11:26:13;21.80;1.00
11617;DHT22;5864;52.998;9.068;2022-10-16T11:28:44;21.80;99.90
11617;DHT22;5864;52.998;9.068;2022-10-16T11:31:17;22.10;99.60
11617;DHT22;5864;52.998;9.068;2022-10-16T11:33:51;21.90;98.30
11617;DHT22;5864;52.998;9.068;2022-10-16T11:36:27;21.70;99.00
11617;DHT22;5864;52.998;9.068;2022-10-16T11:39:02;21.90;98.50
11617;DHT22;5864;52.998;9.068;2022-10-16T11:41:34;22.00;97.70
11617;DHT22;5864;52.998;9.068;2022-10-16T11:44:14;21.90;97.30
11617;DHT22;5864;52.998;9.068;2022-10-16T11:46:48;22.00;97.80
11617;DHT22;5864;52.998;9.068;2022-10-16T11:49:20;21.90;98.60
11617;DHT22;5864;52.998;9.068;2022-10-16T11:51:57;21.90;97.80
11617;DHT22;5864;52.998;9.068;2022-10-16T11:54:29;22.10;97.40
11617;DHT22;5864;52.998;9.068;2022-10-16T11:57:05;22.30;96.90
11617;DHT22;5864;52.998;9.068;2022-10-16T11:59:40;22.00;96.80
11617;DHT22;5864;52.998;9.068;2022-10-16T12:05:14;22.20;97.70
11617;DHT22;5864;52.998;9.068;2022-10-16T12:07:53;22.20;96.90
11617;DHT22;5864;52.998;9.068;2022-10-16T12:10:28;22.40;96.50
11617;DHT22;5864;52.998;9.068;2022-10-16T12:12:57;22.30;96.90
11617;DHT22;5864;52.998;9.068;2022-10-16T12:15:27;22.30;96.90
11617;DHT22;5864;52.998;9.068;2022-10-16T12:17:56;22.10;96.20
11617;DHT22;5864;52.998;9.068;2022-10-16T12:20:28;22.00;95.70
11617;DHT22;5864;52.998;9.068;2022-10-16T12:23:01;21.60;96.40
11617;DHT22;5864;52.998;9.068;2022-10-16T12:25:31;21.30;97.30
11617;DHT22;5864;52.998;9.068;2022-10-16T12:28:04;21.10;96.30
11617;DHT22;5864;52.998;9.068;2022-10-16T12:30:35;20.90;97.10
11617;DHT22;5864;52.998;9.068;2022-10-16T12:33:05;21.00;96.50
11617;DHT22;5864;52.998;9.068;2022-10-16T12:35:35;20.80;96.80
11617;DHT22;5864;52.998;9.068;2022-10-16T12:38:16;20.80;97.40
11617;DHT22;5864;52.998;9.068;2022-10-16T12:40:46;21.00;96.50
11617;DHT22;5864;52.998;9.068;2022-10-16T12:43:39;21.00;95.80
11617;DHT22;5864;52.998;9.068;2022-10-16T12:46:35;21.20;96.50
11617;DHT22;5864;52.998;9.068;2022-10-16T12:49:22;21.40;96.70
11617;DHT22;5864;52.998;9.068;2022-10-16T12:51:51;21.20;96.10
11617;DHT22;5864;52.998;9.068;2022-10-16T12:54:25;21.00;95.90
11617;DHT22;5864;52.998;9.068;2022-10-16T12:57:09;20.90;97.50
11617;DHT22;5864;52.998;9.068;2022-10-16T12:59:44;20.50;94.90
11617;DHT22;5864;52.998;9.068;2022-10-16T13:05:29;20.40;96.20
11617;DHT22;5864;52.998;9.068;2022-10-16T13:08:11;20.40;96.90
11617;DHT22;5864;52.998;9.068;2022-10-16T13:10:54;20.20;97.50
11617;DHT22;5864;52.998;9.068;2022-10-16T13:16:32;19.70;97.70
11617;DHT22;5864;52.998;9.068;2022-10-16T13:19:08;19.90;97.00
11617;DHT22;5864;52.998;9.068;2022-10-16T13:21:44;20.00;96.50
11617;DHT22;5864;52.998;9.068;2022-10-16T13:24:22;20.00;97.50
11617;DHT22;5864;52.998;9.068;2022-10-16T13:26:59;20.30;97.80
11617;DHT22;5864;52.998;9.068;2022-10-16T13:29:30;20.20;97.60
11617;DHT22;5864;52.998;9.068;2022-10-16T13:31:59;20.10;98.20
11617;DHT22;5864;52.998;9.068;2022-10-16T13:34:28;21.30;98.20
11617;DHT22;5864;52.998;9.068;2022-10-16T13:36:56;20.10;98.20
11617;DHT22;5864;52.998;9.068;2022-10-16T13:39:25;20.10;98.40
11617;DHT22;5864;52.998;9.068;2022-10-16T13:42:04;20.00;98.70
11617;DHT22;5864;52.998;9.068;2022-10-16T13:44:36;19.80;99.20
11617;DHT22;5864;52.998;9.068;2022-10-16T13:47:15;19.90;98.90
11617;DHT22;5864;52.998;9.068;2022-10-16T13:49:44;20.00;98.70
11617;DHT22;5864;52.998;9.068;2022-10-16T13:52:19;20.20;98.70
11617;DHT22;5864;52.998;9.068;2022-10-16T13:54:47;20.40;97.70
11617;DHT22;5864;52.998;9.068;2022-10-16T13:57:17;20.50;96.60
11617;DHT22;5864;52.998;9.068;2022-10-16T13:59:44;20.60;97.40
11617;DHT22;5864;52.998;9.068;2022-10-16T14:02:20;20.60;97.10
11617;DHT22;5864;52.998;9.068;2022-10-16T14:04:48;20.60;96.80
11617;DHT22;5864;52.998;9.068;2022-10-16T14:07:22;20.80;96.60
11617;DHT22;5864;52.998;9.068;2022-10-16T14:09:50;20.60;96.80
11617;DHT22;5864;52.998;9.068;2022-10-16T14:12:21;20.60;96.40
11617;DHT22;5864;52.998;9.068;2022-10-16T14:14:51;20.60;96.70
11617;DHT22;5864;52.998;9.068;2022-10-16T14:17:23;20.60;97.50
11617;DHT22;5864;52.998;9.068;2022-10-16T14:19:53;20.60;97.00
11617;DHT22;5864;52.998;9.068;2022-10-16T14:22:30;20.70;97.10
11617;DHT22;5864;52.998;9.068;2022-10-16T14:24:58;20.70;97.30
11617;DHT22;5864;52.998;9.068;2022-10-16T14:27:30;20.60;96.40
11617;DHT22;5864;52.998;9.068;2022-10-16T14:30:19;20.40;96.90
11617;DHT22;5864;52.998;9.068;2022-10-16T14:32:54;20.30;97.00
11617;DHT22;5864;52.998;9.068;2022-10-16T14:35:24;19.60;96.70
11617;DHT22;5864;52.998;9.068;2022-10-16T14:37:53;20.30;96.60
11617;DHT22;5864;52.998;9.068;2022-10-16T14:40:23;20.30;96.90
11617;DHT22;5864;52.998;9.068;2022-10-16T14:42:52;20.20;97.20
11617;DHT22;5864;52.998;9.068;2022-10-16T14:45:21;20.10;97.30
11617;DHT22;5864;52.998;9.068;2022-10-16T14:47:51;20.30;97.20
11617;DHT22;5864;52.998;9.068;2022-10-16T14:50:20;20.50;97.40
11617;DHT22;5864;52.998;9.068;2022-10-16T14:52:47;20.40;97.80
11617;DHT22;5864;52.998;9.068;2022-10-16T14:55:15;20.30;97.60
11617;DHT22;5864;52.998;9.068;2022-10-16T14:57:43;20.20;97.50
11617;DHT22;5864;52.998;9.068;2022-10-16T15:00:18;20.20;98.10
11617;DHT22;5864;52.998;9.068;2022-10-16T15:02:47;20.10;98.40
11617;DHT22;5864;52.998;9.068;2022-10-16T15:05:17;19.80;98.50
11617;DHT22;5864;52.998;9.068;2022-10-16T15:07:45;19.80;98.60
11617;DHT22;5864;52.998;9.068;2022-10-16T15:10:13;19.80;99.00
11617;DHT22;5864;52.998;9.068;2022-10-16T15:12:40;19.60;98.60
11617;DHT22;5864;52.998;9.068;2022-10-16T15:15:32;19.60;99.30
11617;DHT22;5864;52.998;9.068;2022-10-16T15:18:00;19.50;99.80
11617;DHT22;5864;52.998;9.068;2022-10-16T15:20:29;19.30;99.90
11617;DHT22;5864;52.998;9.068;2022-10-16T15:22:57;19.20;99.90
11617;DHT22;5864;52.998;9.068;2022-10-16T15:25:35;19.10;99.90
11617;DHT22;5864;52.998;9.068;2022-10-16T15:28:04;19.00;99.90
11617;DHT22;5864;52.998;9.068;2022-10-16T15:30:34;18.90;99.90
11617;DHT22;5864;52.998;9.068;2022-10-16T15:33:02;18.70;99.90
11617;DHT22;5864;52.998;9.068;2022-10-16T15:35:30;18.70;99.90
11617;DHT22;5864;52.998;9.068;2022-10-16T15:37:58;18.60;99.90
11617;DHT22;5864;52.998;9.068;2022-10-16T15:40:25;18.60;99.90
11617;DHT22;5864;52.998;9.068;2022-10-16T15:42:52;18.50;99.90
11617;DHT22;5864;52.998;9.068;2022-10-16T15:45:20;18.50;99.90
11617;DHT22;5864;52.998;9.068;2022-10-16T15:47:49;18.40;99.90
11617;DHT22;5864;52.998;9.068;2022-10-16T15:50:17;19.40;99.90
11617;DHT22;5864;52.998;9.068;2022-10-16T15:52:44;18.30;99.90
11617;DHT22;5864;52.998;9.068;2022-10-16T15:55:13;18.10;99.90
11617;DHT22;5864;52.998;9.068;2022-10-16T15:57:41;18.10;99.90
11617;DHT22;5864;52.998;9.068;2022-10-16T16:00:11;18.00;99.90
11617;DHT22;5864;52.998;9.068;2022-10-16T16:02:40;17.80;99.90
11617;DHT22;5864;52.998;9.068;2022-10-16T16:05:10;17.70;99.90
11617;DHT22;5864;52.998;9.068;2022-10-16T16:07:39;17.70;99.90
11617;DHT22;5864;52.998;9.068;2022-10-16T16:10:08;17.50;99.90
11617;DHT22;5864;52.998;9.068;2022-10-16T16:12:37;17.40;99.90
11617;DHT22;5864;52.998;9.068;2022-10-16T16:15:06;17.30;99.90
11617;DHT22;5864;52.998;9.068;2022-10-16T16:17:34;17.20;99.90
11617;DHT22;5864;52.998;9.068;2022-10-16T16:20:03;17.20;99.90
11617;DHT22;5864;52.998;9.068;2022-10-16T16:22:32;17.00;99.90